Time;durP1;ratioP1;P1;durP2;ratioP2;P2;SDS_P1;SDS_P2;PMS_P1;PMS_P2;Temp;Humidity;BMP_temperature;BMP_pressure;BME280_temperature;BME280_humidity;BME280_pressure;Samples;Min_cycle;Max_cycle;Signal;HPM_P1;HPM_P2
2023/10/02 00:03:34;;;;;;;5.82;3.03;;;;;;;;;;5047026;28;20111;-76
2023/10/02 00:06:01;;;;;;;4.43;2.58;;;;;;;;;;5038133;28;20025;-75
2023/10/02 00:08:42;;;;;;;4.43;2.63;;;;;;;;;;5038601;28;20029;-74
2023/10/02 00:17:03;;;;;;;5.20;2.83;;;;;;;;;;5038182;28;20052;-77
2023/10/02 00:19:49;;;;;;;5.60;3.50;;;;;;;;;;5037073;28;20017;-76
2023/10/02 00:22:36;;;;;;;4.97;3.13;;;;;;;;;;5039010;28;20026;-74
2023/10/02 00:25:16;;;;;;;5.15;3.03;;;;;;;;;;5056120;28;20021;-75
2023/10/02 00:27:43;;;;;;;6.85;3.75;;;;;;;;;;5057545;28;20025;-75
2023/10/02 00:30:13;;;;;;;4.72;3.05;;;;;;;;;;5057216;28;20021;-76
2023/10/02 00:32:41;;;;;;;5.55;3.20;;;;;;;;;;5058317;28;20016;-76
2023/10/02 00:35:10;;;;;;;5.80;3.45;;;;;;;;;;5043372;28;20116;-75
2023/10/02 00:37:51;;;;;;;6.32;3.83;;;;;;;;;;5038933;28;20029;-76
2023/10/02 00:40:22;;;;;;;5.88;3.45;;;;;;;;;;5038831;28;20022;-74
2023/10/02 00:42:56;;;;;;;7.22;3.50;;;;;;;;;;5038290;28;20037;-74
2023/10/02 00:45:22;;;;;;;6.93;4.03;;;;;;;;;;5052280;28;20029;-76
2023/10/02 00:47:49;;;;;;;6.53;3.63;;;;;;;;;;5057243;28;20541;-76
2023/10/02 00:50:19;;;;;;;5.82;3.90;;;;;;;;;;5055429;28;20021;-76
2023/10/02 00:53:03;;;;;;;6.63;3.80;;;;;;;;;;5055234;28;20076;-76
2023/10/02 00:55:35;;;;;;;6.00;3.45;;;;;;;;;;5045671;28;20090;-76
2023/10/02 00:58:08;;;;;;;5.90;3.33;;;;;;;;;;5038418;28;20024;-76
2023/10/02 01:00:35;;;;;;;4.53;2.60;;;;;;;;;;5036646;28;20048;-76
2023/10/02 01:03:02;;;;;;;5.40;2.80;;;;;;;;;;5038453;28;20021;-75
2023/10/02 01:05:41;;;;;;;4.60;3.03;;;;;;;;;;5033385;28;20037;-74
2023/10/02 01:08:23;;;;;;;5.47;3.13;;;;;;;;;;5032697;28;20535;-76
2023/10/02 01:10:50;;;;;;;5.75;3.38;;;;;;;;;;5038781;28;20024;-76
2023/10/02 01:13:17;;;;;;;5.38;3.03;;;;;;;;;;5038351;28;20026;-77
2023/10/02 01:15:46;;;;;;;4.97;2.63;;;;;;;;;;5038604;28;20025;-76
2023/10/02 01:18:21;;;;;;;4.75;2.70;;;;;;;;;;5038951;28;20017;-74
2023/10/02 01:20:48;;;;;;;5.75;3.20;;;;;;;;;;5037905;28;20029;-75
2023/10/02 01:23:16;;;;;;;4.75;2.75;;;;;;;;;;5038380;28;20033;-76
2023/10/02 01:25:46;;;;;;;4.45;2.85;;;;;;;;;;5038637;28;20025;-75
2023/10/02 01:28:13;;;;;;;6.18;3.35;;;;;;;;;;5038598;28;20026;-76
2023/10/02 01:30:47;;;;;;;4.57;3.00;;;;;;;;;;5037759;28;20025;-75
2023/10/02 01:33:26;;;;;;;5.85;3.55;;;;;;;;;;5038057;28;20021;-75
2023/10/02 01:35:53;;;;;;;5.68;3.03;;;;;;;;;;5047389;28;20025;-76
2023/10/02 01:38:29;;;;;;;7.22;3.42;;;;;;;;;;5060870;28;20036;-74
2023/10/02 01:41:06;;;;;;;6.22;3.30;;;;;;;;;;5058556;28;20110;-75
2023/10/02 01:43:36;;;;;;;6.55;3.42;;;;;;;;;;5057226;28;20021;-75
2023/10/02 01:46:03;;;;;;;5.72;3.70;;;;;;;;;;5055260;28;20029;-76
2023/10/02 01:48:44;;;;;;;4.85;3.20;;;;;;;;;;5038154;28;20025;-76
2023/10/02 01:51:20;;;;;;;5.75;2.95;;;;;;;;;;5037755;28;20037;-75
2023/10/02 01:53:46;;;;;;;5.82;3.25;;;;;;;;;;5037481;28;20025;-74
2023/10/02 01:56:13;;;;;;;5.45;3.38;;;;;;;;;;5039253;28;20056;-75
2023/10/02 01:58:39;;;;;;;6.05;3.70;;;;;;;;;;5057390;28;20063;-74
2023/10/02 02:01:09;;;;;;;4.93;3.08;;;;;;;;;;5058056;28;20098;-76
2023/10/02 02:03:35;;;;;;;5.88;3.47;;;;;;;;;;5041320;28;20030;-75
2023/10/02 02:06:08;;;;;;;6.90;3.60;;;;;;;;;;5037149;28;20036;-75
2023/10/02 02:08:40;;;;;;;4.63;3.03;;;;;;;;;;5045875;28;20016;-76
2023/10/02 02:11:20;;;;;;;6.20;3.53;;;;;;;;;;5056621;28;20386;-76
2023/10/02 02:13:58;;;;;;;5.68;3.35;;;;;;;;;;5057752;28;20104;-75
2023/10/02 02:16:33;;;;;;;5.57;2.90;;;;;;;;;;5056939;28;20021;-76
2023/10/02 02:19:05;;;;;;;5.68;3.30;;;;;;;;;;5037746;28;20087;-76
2023/10/02 02:21:31;;;;;;;5.93;3.30;;;;;;;;;;5036855;28;20494;-75
2023/10/02 02:24:03;;;;;;;5.47;3.25;;;;;;;;;;5036939;28;20026;-74
2023/10/02 02:26:33;;;;;;;4.90;3.00;;;;;;;;;;5037480;28;20049;-74
2023/10/02 02:29:03;;;;;;;4.75;2.97;;;;;;;;;;5051108;28;20029;-75
2023/10/02 02:31:29;;;;;;;4.95;3.22;;;;;;;;;;5044947;28;20044;-76
2023/10/02 02:34:00;;;;;;;4.60;3.00;;;;;;;;;;5039816;28;20032;-74
2023/10/02 02:36:27;;;;;;;5.82;3.40;;;;;;;;;;5044039;28;20087;-75
2023/10/02 02:39:15;;;;;;;7.05;4.15;;;;;;;;;;5050463;28;20025;-75
2023/10/02 02:41:41;;;;;;;5.72;2.90;;;;;;;;;;5058287;28;20044;-75
2023/10/02 02:44:29;;;;;;;4.50;2.97;;;;;;;;;;5057718;28;20029;-75
2023/10/02 02:46:56;;;;;;;4.78;2.90;;;;;;;;;;5056999;28;20037;-76
2023/10/02 02:49:23;;;;;;;5.88;3.58;;;;;;;;;;5046258;28;20033;-75
2023/10/02 02:51:50;;;;;;;5.05;2.90;;;;;;;;;;5040509;28;20022;-75
2023/10/02 02:54:15;;;;;;;5.13;3.13;;;;;;;;;;5040826;28;20034;-76
2023/10/02 02:56:42;;;;;;;4.68;3.13;;;;;;;;;;5043019;28;20255;-74
2023/10/02 02:59:08;;;;;;;7.70;3.40;;;;;;;;;;5046835;28;20304;-77
2023/10/02 03:01:34;;;;;;;4.70;3.03;;;;;;;;;;5041874;28;20025;-74
2023/10/02 03:04:11;;;;;;;6.95;3.85;;;;;;;;;;5042578;28;20025;-75
2023/10/02 03:06:37;;;;;;;5.40;3.67;;;;;;;;;;5042567;28;20025;-75
2023/10/02 03:09:08;;;;;;;6.03;3.38;;;;;;;;;;5045991;28;20018;-76
2023/10/02 03:11:34;;;;;;;6.53;3.38;;;;;;;;;;5041126;28;20492;-75
2023/10/02 03:14:13;;;;;;;5.80;3.35;;;;;;;;;;5040710;28;20053;-75
2023/10/02 03:16:39;;;;;;;7.80;3.90;;;;;;;;;;5040207;28;20083;-74
2023/10/02 03:19:13;;;;;;;5.15;2.90;;;;;;;;;;5040989;28;20025;-76
2023/10/02 03:21:42;;;;;;;5.38;3.00;;;;;;;;;;5041321;28;20025;-75
2023/10/02 03:24:08;;;;;;;6.15;3.63;;;;;;;;;;5041093;28;20399;-77
2023/10/02 03:29:01;;;;;;;7.75;3.50;;;;;;;;;;5040003;28;20017;-76
2023/10/02 03:31:43;;;;;;;6.00;3.35;;;;;;;;;;5041936;28;20033;-76
2023/10/02 03:36:59;;;;;;;5.75;3.08;;;;;;;;;;5042136;28;20060;-74
2023/10/02 03:42:13;;;;;;;4.82;3.22;;;;;;;;;;5018855;28;20404;-76
2023/10/02 03:44:45;;;;;;;5.53;2.88;;;;;;;;;;5018599;28;20071;-76
2023/10/02 03:47:14;;;;;;;3.67;2.60;;;;;;;;;;5018213;28;20044;-75
2023/10/02 03:49:43;;;;;;;6.05;3.05;;;;;;;;;;5018720;28;20038;-75
2023/10/02 03:52:10;;;;;;;5.03;2.70;;;;;;;;;;5057051;28;20058;-75
2023/10/02 03:54:36;;;;;;;5.82;3.10;;;;;;;;;;5059496;28;20078;-75
2023/10/02 03:57:02;;;;;;;4.85;3.17;;;;;;;;;;5059392;28;20403;-76
2023/10/02 03:59:32;;;;;;;4.78;2.80;;;;;;;;;;5058624;28;20037;-75
2023/10/02 04:04:44;;;;;;;4.53;2.80;;;;;;;;;;5039432;28;20111;-76
2023/10/02 04:07:13;;;;;;;5.78;3.28;;;;;;;;;;5039558;28;20025;-75
2023/10/02 04:09:39;;;;;;;5.13;2.60;;;;;;;;;;5039649;28;20029;-75
2023/10/02 04:12:07;;;;;;;7.00;3.30;;;;;;;;;;5053823;28;20486;-75
2023/10/02 04:14:38;;;;;;;4.88;3.05;;;;;;;;;;5061000;28;20178;-75
2023/10/02 04:19:47;;;;;;;5.28;3.00;;;;;;;;;;5042905;28;20041;-76
2023/10/02 04:22:19;;;;;;;5.13;2.92;;;;;;;;;;5042862;28;20032;-76
2023/10/02 04:24:58;;;;;;;5.45;3.17;;;;;;;;;;5043096;28;20033;-75
2023/10/02 04:27:27;;;;;;;5.25;3.13;;;;;;;;;;5045518;28;20029;-75
2023/10/02 04:30:19;;;;;;;6.55;3.30;;;;;;;;;;5061206;28;20044;-76
2023/10/02 04:32:49;;;;;;;4.97;2.72;;;;;;;;;;5063674;28;20311;-76
2023/10/02 04:38:09;;;;;;;5.28;3.00;;;;;;;;;;5062063;28;20074;-75
2023/10/02 04:40:49;;;;;;;5.22;3.28;;;;;;;;;;5040356;28;20040;-75
2023/10/02 04:43:25;;;;;;;4.97;2.75;;;;;;;;;;5054949;28;20025;-75
2023/10/02 04:46:08;;;;;;;4.45;2.88;;;;;;;;;;5062486;28;20025;-75
2023/10/02 04:48:42;;;;;;;4.75;2.60;;;;;;;;;;5059089;28;20017;-76
2023/10/02 04:51:08;;;;;;;6.05;3.20;;;;;;;;;;5038939;28;20025;-75
2023/10/02 04:53:35;;;;;;;6.00;3.35;;;;;;;;;;5037983;28;20083;-75
2023/10/02 04:56:13;;;;;;;4.90;2.67;;;;;;;;;;5038140;28;20447;-74
2023/10/02 04:58:49;;;;;;;5.53;2.88;;;;;;;;;;5039290;28;20025;-75
2023/10/02 05:01:29;;;;;;;5.47;2.92;;;;;;;;;;5038469;28;20112;-75
2023/10/02 05:04:02;;;;;;;4.75;2.72;;;;;;;;;;5039335;28;20032;-76
2023/10/02 05:11:53;;;;;;;4.82;2.80;;;;;;;;;;5060935;28;20348;-74
2023/10/02 05:14:44;;;;;;;6.70;3.38;;;;;;;;;;5061145;28;20056;-74
2023/10/02 05:20:01;;;;;;;5.22;3.22;;;;;;;;;;5057544;28;20025;-75
2023/10/02 05:22:28;;;;;;;6.95;3.55;;;;;;;;;;5035547;28;20439;-76
2023/10/02 05:24:58;;;;;;;8.15;3.50;;;;;;;;;;5051613;28;20041;-76
2023/10/02 05:27:31;;;;;;;7.40;3.75;;;;;;;;;;5042905;28;20053;-75
2023/10/02 05:30:01;;;;;;;5.50;3.35;;;;;;;;;;5033946;28;20047;-77
2023/10/02 05:32:35;;;;;;;6.78;3.58;;;;;;;;;;5033930;28;20464;-77
2023/10/02 05:37:40;;;;;;;6.72;3.53;;;;;;;;;;5033847;28;20542;-78
2023/10/02 05:43:09;;;;;;;8.02;3.90;;;;;;;;;;5033421;28;20472;-77
2023/10/02 05:48:22;;;;;;;6.50;3.45;;;;;;;;;;5035743;28;20112;-78
2023/10/02 05:50:49;;;;;;;6.18;3.20;;;;;;;;;;5034739;28;20021;-77
2023/10/02 05:53:15;;;;;;;6.40;3.40;;;;;;;;;;5032805;28;20025;-77
2023/10/02 05:55:57;;;;;;;6.82;3.70;;;;;;;;;;5034750;28;20118;-77
2023/10/02 05:58:32;;;;;;;6.55;3.28;;;;;;;;;;5035068;28;20033;-77
2023/10/02 06:01:03;;;;;;;6.95;3.17;;;;;;;;;;5034371;28;20037;-77
2023/10/02 06:03:34;;;;;;;7.57;3.72;;;;;;;;;;5033465;28;20018;-77
2023/10/02 06:06:35;;;;;;;4.95;3.17;;;;;;;;;;5031823;28;20121;-77
2023/10/02 06:08:55;;;;;;;;;;;;;;;;;;5032154;28;20464;-77
2023/10/02 06:11:34;;;;;;;4.82;2.13;;;;;;;;;;5032740;28;19904;-76
2023/10/02 06:14:10;;;;;;;4.75;2.90;;;;;;;;;;5033607;28;20022;-76
2023/10/02 06:16:42;;;;;;;5.05;2.90;;;;;;;;;;5033630;28;20028;-77
2023/10/02 06:19:13;;;;;;;;;;;;;;;;;;5044510;28;20083;-76
2023/10/02 06:24:30;;;;;;;6.53;3.00;;;;;;;;;;5056689;28;20052;-77
2023/10/02 06:27:05;;;;;;;4.80;3.00;;;;;;;;;;5057065;28;20055;-77
2023/10/02 06:29:33;;;;;;;4.68;3.00;;;;;;;;;;5046809;28;20431;-77
2023/10/02 06:32:02;;;;;;;6.40;3.60;;;;;;;;;;5037346;28;20022;-76
2023/10/02 06:34:39;;;;;;;5.47;3.00;;;;;;;;;;5040856;28;20060;-75
2023/10/02 06:37:08;;;;;;;4.80;2.90;;;;;;;;;;5037404;28;20025;-76
2023/10/02 06:39:35;;;;;;;4.20;3.00;;;;;;;;;;5037167;28;20025;-76
2023/10/02 06:42:05;;;;;;;4.63;2.92;;;;;;;;;;5037223;28;20084;-75
2023/10/02 06:47:16;;;;;;;5.05;2.80;;;;;;;;;;5037713;28;20083;-77
2023/10/02 06:49:44;;;;;;;5.05;2.60;;;;;;;;;;5036667;28;20021;-76
2023/10/02 06:52:16;;;;;;;5.97;3.28;;;;;;;;;;5037648;28;20018;-76
2023/10/02 06:54:48;;;;;;;7.43;3.55;;;;;;;;;;5037263;28;20033;-76
2023/10/02 06:57:15;;;;;;;7.38;3.85;;;;;;;;;;5039646;28;20079;-77
2023/10/02 06:59:51;;;;;;;7.32;4.28;;;;;;;;;;5039472;28;20026;-76
2023/10/02 07:02:17;;;;;;;7.75;3.90;;;;;;;;;;5037907;28;20142;-77
2023/10/02 07:04:44;;;;;;;9.93;5.05;;;;;;;;;;5044611;28;20069;-76
2023/10/02 07:07:12;;;;;;;6.95;3.85;;;;;;;;;;5038764;28;20018;-77
2023/10/02 07:09:39;;;;;;;7.00;3.65;;;;;;;;;;5039024;28;20051;-76
2023/10/02 07:12:09;;;;;;;6.25;3.65;;;;;;;;;;5037689;28;20018;-75
2023/10/02 07:14:36;;;;;;;7.55;3.78;;;;;;;;;;5037021;28;20033;-77
2023/10/02 07:17:11;;;;;;;4.45;2.78;;;;;;;;;;5036949;28;20029;-77
2023/10/02 07:19:38;;;;;;;6.82;3.47;;;;;;;;;;5036766;28;20017;-77
2023/10/02 07:22:11;;;;;;;5.82;3.42;;;;;;;;;;5036655;28;20111;-77
2023/10/02 07:24:40;;;;;;;5.85;3.20;;;;;;;;;;5036742;28;20030;-77
2023/10/02 07:27:22;;;;;;;6.32;3.90;;;;;;;;;;5036380;28;20033;-76
2023/10/02 07:29:48;;;;;;;;;;;;;;;;;;5036553;28;20034;-77
2023/10/02 07:32:14;;;;;;;7.03;3.75;;;;;;;;;;5050729;28;20054;-77
2023/10/02 07:34:40;;;;;;;11.07;5.70;;;;;;;;;;5056668;28;20108;-76
2023/10/02 07:37:07;;;;;;;11.20;6.07;;;;;;;;;;5058186;28;20103;-76
2023/10/02 07:39:36;;;;;;;11.30;6.10;;;;;;;;;;5056662;28;20468;-77
2023/10/02 07:42:04;;;;;;;11.60;5.90;;;;;;;;;;5055890;28;20408;-77
2023/10/02 07:44:39;;;;;;;13.15;6.68;;;;;;;;;;5056504;28;20110;-76
2023/10/02 07:47:16;;;;;;;11.15;6.60;;;;;;;;;;5060139;28;20455;-76
2023/10/02 07:49:51;;;;;;;12.88;6.35;;;;;;;;;;5056272;28;20024;-77
2023/10/02 07:52:29;;;;;;;11.52;6.50;;;;;;;;;;5045912;28;20021;-77
2023/10/02 07:54:59;;;;;;;10.55;5.75;;;;;;;;;;5038410;28;20099;-77
2023/10/02 07:57:32;;;;;;;9.93;6.10;;;;;;;;;;5037423;28;20032;-76
2023/10/02 08:00:33;;;;;;;11.15;6.63;;;;;;;;;;5036525;28;20037;-77
2023/10/02 08:02:55;;;;;;;12.57;6.78;;;;;;;;;;5047784;28;20349;-76
2023/10/02 08:05:21;;;;;;;13.07;7.05;;;;;;;;;;5055594;28;20068;-76
2023/10/02 08:07:47;;;;;;;16.83;8.73;;;;;;;;;;5057039;28;20100;-76
2023/10/02 08:10:16;;;;;;;16.65;9.27;;;;;;;;;;5056881;28;20078;-77
2023/10/02 08:12:54;;;;;;;18.70;9.18;;;;;;;;;;5055060;28;20017;-77
2023/10/02 08:15:27;;;;;;;20.00;10.15;;;;;;;;;;5055136;28;20036;-77
2023/10/02 08:20:36;;;;;;;24.73;12.20;;;;;;;;;;5055376;28;20547;-76
2023/10/02 08:23:21;;;;;;;23.13;11.27;;;;;;;;;;5054356;28;20124;-75
2023/10/02 08:25:48;;;;;;;19.95;11.40;;;;;;;;;;5055306;28;20021;-76
2023/10/02 08:28:26;;;;;;;23.45;12.10;;;;;;;;;;5055216;28;20179;-76
2023/10/02 08:30:59;;;;;;;25.92;12.10;;;;;;;;;;5054063;28;20079;-76
2023/10/02 08:33:26;;;;;;;24.13;11.57;;;;;;;;;;5046690;28;20302;-77
2023/10/02 08:35:52;;;;;;;21.85;11.93;;;;;;;;;;5035690;28;20036;-76
2023/10/02 08:38:26;;;;;;;23.88;12.68;;;;;;;;;;5034968;28;20534;-77
2023/10/02 08:41:02;;;;;;;25.65;12.65;;;;;;;;;;5034899;28;20038;-76
2023/10/02 08:43:31;;;;;;;26.05;13.13;;;;;;;;;;5034752;28;20029;-77
2023/10/02 08:45:57;;;;;;;26.05;13.68;;;;;;;;;;5035739;28;20044;-76
2023/10/02 08:48:25;;;;;;;26.58;14.05;;;;;;;;;;5035121;28;20036;-76
2023/10/02 08:50:57;;;;;;;23.58;12.18;;;;;;;;;;5034586;28;20034;-76
2023/10/02 08:53:23;;;;;;;21.27;11.35;;;;;;;;;;5035687;28;20059;-75
2023/10/02 08:56:01;;;;;;;22.08;12.23;;;;;;;;;;5035843;28;20053;-77
2023/10/02 08:58:28;;;;;;;18.83;10.52;;;;;;;;;;5034557;28;20148;-76
2023/10/02 09:03:42;;;;;;;;;;;;;;;;;;5035123;28;20083;-76
2023/10/02 09:11:41;;;;;;;22.90;12.00;;;;;;;;;;5034827;28;20033;-77
2023/10/02 09:16:46;;;;;;;19.80;10.77;;;;;;;;;;5035661;28;20116;-76
2023/10/02 09:19:31;;;;;;;21.27;11.40;;;;;;;;;;5034718;28;20017;-77
2023/10/02 09:22:06;;;;;;;22.15;12.20;;;;;;;;;;5035106;28;20021;-77
2023/10/02 09:24:36;;;;;;;19.23;10.90;;;;;;;;;;5034110;28;20025;-76
2023/10/02 09:27:25;;;;;;;17.95;10.38;;;;;;;;;;5034527;28;20084;-76
2023/10/02 09:32:50;;;;;;;23.60;12.35;;;;;;;;;;5035519;28;20048;-77
2023/10/02 09:35:29;;;;;;;18.75;10.80;;;;;;;;;;5034330;28;20028;-77
2023/10/02 09:38:06;;;;;;;18.42;10.82;;;;;;;;;;5033466;28;20079;-77
2023/10/02 09:40:54;;;;;;;19.98;11.55;;;;;;;;;;5034010;28;20116;-77
2023/10/02 09:43:31;;;;;;;26.40;14.50;;;;;;;;;;5033956;28;20510;-77
2023/10/02 09:46:15;;;;;;;29.50;15.95;;;;;;;;;;5034274;28;20028;-77
2023/10/02 09:51:30;;;;;;;30.13;16.42;;;;;;;;;;5033533;28;20032;-78
2023/10/02 09:54:17;;;;;;;25.45;14.95;;;;;;;;;;5033031;28;20025;-77
2023/10/02 09:57:31;;;;;;;23.80;13.27;;;;;;;;;;5033894;28;20044;-77
2023/10/02 09:59:51;;;;;;;20.30;12.10;;;;;;;;;;5032900;28;20066;-77
2023/10/02 10:13:36;;;;;;;21.10;12.40;;;;;;;;;;5048712;28;20036;-76
2023/10/02 10:16:23;;;;;;;18.73;11.30;;;;;;;;;;5050375;28;20052;-76
2023/10/02 10:24:32;;;;;;;17.67;10.57;;;;;;;;;;5073405;28;20106;-76
2023/10/02 10:26:58;;;;;;;18.58;10.40;;;;;;;;;;5057911;28;20033;-78
2023/10/02 10:29:41;;;;;;;14.60;9.38;;;;;;;;;;5036190;28;20120;-77
2023/10/02 10:32:23;;;;;;;15.40;9.80;;;;;;;;;;5035095;28;20018;-77
2023/10/02 10:35:11;;;;;;;17.52;10.13;;;;;;;;;;5035696;28;20029;-78
2023/10/02 10:37:47;;;;;;;15.35;9.65;;;;;;;;;;5034469;28;20021;-76
2023/10/02 10:40:44;;;;;;;16.52;9.43;;;;;;;;;;5048338;28;20052;-77
2023/10/02 10:43:21;;;;;;;14.70;9.57;;;;;;;;;;5035455;28;20025;-77
2023/10/02 10:45:51;;;;;;;16.55;9.85;;;;;;;;;;5034036;28;20143;-77
2023/10/02 10:48:22;;;;;;;18.27;10.70;;;;;;;;;;5032050;28;20025;-76
2023/10/02 10:50:57;;;;;;;21.58;13.00;;;;;;;;;;5033519;28;20155;-77
2023/10/02 10:53:30;;;;;;;24.52;13.15;;;;;;;;;;5032097;28;20384;-76
2023/10/02 10:56:05;;;;;;;23.83;13.77;;;;;;;;;;5031734;28;20029;-77
2023/10/02 10:58:35;;;;;;;27.55;14.57;;;;;;;;;;5032438;28;20366;-77
2023/10/02 11:01:02;;;;;;;25.60;13.77;;;;;;;;;;5033311;28;20091;-77
2023/10/02 11:03:30;;;;;;;23.30;13.57;;;;;;;;;;5032666;28;20502;-77
2023/10/02 11:06:01;;;;;;;23.33;13.55;;;;;;;;;;5032948;28;20108;-77
2023/10/02 11:08:33;;;;;;;23.63;13.23;;;;;;;;;;5032818;28;20104;-77
2023/10/02 11:11:06;;;;;;;23.48;13.02;;;;;;;;;;5036304;28;20025;-78
2023/10/02 11:13:50;;;;;;;18.65;11.98;;;;;;;;;;5036517;28;20481;-77
2023/10/02 11:16:36;;;;;;;18.55;11.27;;;;;;;;;;5037127;28;20052;-77
2023/10/02 11:22:02;;;;;;;15.98;9.65;;;;;;;;;;5037267;28;20097;-77
2023/10/02 11:24:30;;;;;;;16.42;10.10;;;;;;;;;;5036354;28;20025;-76
2023/10/02 11:27:07;;;;;;;17.63;11.07;;;;;;;;;;5036649;28;20013;-77
2023/10/02 11:29:40;;;;;;;15.07;9.15;;;;;;;;;;5035838;28;20018;-77
2023/10/02 11:32:19;;;;;;;15.93;10.10;;;;;;;;;;5036020;28;20392;-77
2023/10/02 11:34:49;;;;;;;16.15;9.80;;;;;;;;;;5036294;28;20025;-77
2023/10/02 11:37:16;;;;;;;17.92;11.00;;;;;;;;;;5035784;28;20013;-76
2023/10/02 11:39:42;;;;;;;16.38;10.45;;;;;;;;;;5035544;28;20037;-76
2023/10/02 11:42:09;;;;;;;15.82;10.20;;;;;;;;;;5035472;28;20029;-77
2023/10/02 11:44:35;;;;;;;18.70;11.05;;;;;;;;;;5035324;28;20025;-76
2023/10/02 11:47:01;;;;;;;15.18;9.52;;;;;;;;;;5035606;28;20013;-77
2023/10/02 11:49:29;;;;;;;15.85;9.60;;;;;;;;;;5033721;28;20083;-78
2023/10/02 11:52:00;;;;;;;18.63;11.43;;;;;;;;;;5035558;28;20029;-77
2023/10/02 11:54:26;;;;;;;16.42;10.25;;;;;;;;;;5035770;28;20049;-77
2023/10/02 11:56:52;;;;;;;14.88;10.10;;;;;;;;;;5035859;28;20048;-76
2023/10/02 11:59:18;;;;;;;20.67;12.02;;;;;;;;;;5035752;28;20470;-76
2023/10/02 12:01:47;;;;;;;21.23;12.18;;;;;;;;;;5036443;28;20025;-77
2023/10/02 12:04:13;;;;;;;19.02;10.98;;;;;;;;;;5035578;28;20567;-77
2023/10/02 12:06:39;;;;;;;17.77;11.43;;;;;;;;;;5035623;28;20168;-76
2023/10/02 12:09:05;;;;;;;18.67;10.98;;;;;;;;;;5034185;28;20030;-77
2023/10/02 12:11:35;;;;;;;15.68;9.52;;;;;;;;;;5036184;28;20100;-77
2023/10/02 12:14:02;;;;;;;13.60;9.02;;;;;;;;;;5035395;28;20032;-78
2023/10/02 12:16:29;;;;;;;13.27;8.82;;;;;;;;;;5033914;28;20040;-77
2023/10/02 12:18:55;;;;;;;12.25;8.07;;;;;;;;;;5035722;28;20029;-77
2023/10/02 12:21:21;;;;;;;12.18;8.05;;;;;;;;;;5036778;28;20041;-78
2023/10/02 12:23:48;;;;;;;10.13;7.15;;;;;;;;;;5035691;28;20022;-77
2023/10/02 12:26:15;;;;;;;11.10;7.18;;;;;;;;;;5036195;28;20041;-76
2023/10/02 12:28:41;;;;;;;11.23;7.30;;;;;;;;;;5036484;28;20123;-77
2023/10/02 12:31:14;;;;;;;13.50;8.77;;;;;;;;;;5036061;28;20037;-77
2023/10/02 12:33:44;;;;;;;14.13;8.90;;;;;;;;;;5034362;28;20026;-77
2023/10/02 12:36:20;;;;;;;14.80;9.10;;;;;;;;;;5035450;28;20037;-77
2023/10/02 12:38:47;;;;;;;15.13;10.02;;;;;;;;;;5035576;28;20614;-77
2023/10/02 12:41:14;;;;;;;17.00;10.50;;;;;;;;;;5035322;28;20029;-77
2023/10/02 12:43:42;;;;;;;17.50;10.93;;;;;;;;;;5034200;28;20056;-77
2023/10/02 12:46:08;;;;;;;17.90;11.23;;;;;;;;;;5035837;28;20039;-76
2023/10/02 12:48:34;;;;;;;19.08;10.70;;;;;;;;;;5035495;28;20056;-77
2023/10/02 12:51:07;;;;;;;14.80;9.35;;;;;;;;;;5035362;28;20025;-77
2023/10/02 12:53:35;;;;;;;15.27;9.55;;;;;;;;;;5035274;28;20061;-76
2023/10/02 12:56:02;;;;;;;16.55;10.85;;;;;;;;;;5046292;28;20025;-77
2023/10/02 12:58:28;;;;;;;14.15;9.27;;;;;;;;;;5055181;28;20081;-76
2023/10/02 13:00:54;;;;;;;15.45;9.68;;;;;;;;;;5054058;28;20100;-78
2023/10/02 13:03:21;;;;;;;14.98;9.68;;;;;;;;;;5053910;28;20519;-77
2023/10/02 13:05:47;;;;;;;17.20;10.50;;;;;;;;;;5055275;28;20066;-78
2023/10/02 13:08:13;;;;;;;15.27;9.65;;;;;;;;;;5054022;28;20103;-77
2023/10/02 13:10:39;;;;;;;13.98;8.98;;;;;;;;;;5054041;28;20033;-77
2023/10/02 13:13:05;;;;;;;16.48;9.73;;;;;;;;;;5053417;28;20025;-77
2023/10/02 13:15:33;;;;;;;14.77;10.38;;;;;;;;;;5055265;28;20029;-77
2023/10/02 13:17:59;;;;;;;15.32;9.75;;;;;;;;;;5054483;28;20090;-77
2023/10/02 13:20:26;;;;;;;16.35;10.10;;;;;;;;;;5054720;28;20052;-76
2023/10/02 13:22:54;;;;;;;17.08;10.73;;;;;;;;;;5056137;28;20036;-76
2023/10/02 13:25:23;;;;;;;22.98;13.95;;;;;;;;;;5045957;28;20040;-76
2023/10/02 13:27:50;;;;;;;23.85;14.60;;;;;;;;;;5035600;28;20032;-77
2023/10/02 13:30:25;;;;;;;22.88;15.07;;;;;;;;;;5035723;28;20409;-77
2023/10/02 13:32:52;;;;;;;24.23;13.98;;;;;;;;;;5035661;28;20036;-77
2023/10/02 13:35:18;;;;;;;21.40;13.30;;;;;;;;;;5038511;28;20218;-76
2023/10/02 13:37:44;;;;;;;21.70;13.75;;;;;;;;;;5035306;28;20060;-77
2023/10/02 13:40:26;;;;;;;20.52;13.00;;;;;;;;;;5035510;28;20037;-77
2023/10/02 13:42:52;;;;;;;25.35;13.70;;;;;;;;;;5033516;28;20056;-77
2023/10/02 13:45:24;;;;;;;23.27;14.48;;;;;;;;;;5034142;28;20040;-77
2023/10/02 13:47:53;;;;;;;22.90;13.82;;;;;;;;;;5034313;28;20024;-77
2023/10/02 13:50:21;;;;;;;23.33;14.15;;;;;;;;;;5034545;28;20030;-77
2023/10/02 13:52:51;;;;;;;22.58;14.25;;;;;;;;;;5034222;28;20096;-76
2023/10/02 13:55:22;;;;;;;22.52;13.00;;;;;;;;;;5034150;28;20034;-77
2023/10/02 13:57:52;;;;;;;19.48;12.50;;;;;;;;;;5034788;28;20025;-76
2023/10/02 14:00:20;;;;;;;19.33;11.18;;;;;;;;;;5034506;28;20048;-77
2023/10/02 14:02:51;;;;;;;17.05;10.70;;;;;;;;;;5034694;28;20017;-76
2023/10/02 14:05:18;;;;;;;14.25;9.65;;;;;;;;;;5034107;28;20455;-75
2023/10/02 14:07:48;;;;;;;16.30;10.48;;;;;;;;;;5033685;28;20017;-76
2023/10/02 14:10:15;;;;;;;19.05;12.10;;;;;;;;;;5033859;28;20017;-76
2023/10/02 14:12:44;;;;;;;20.77;12.88;;;;;;;;;;5032441;28;20025;-75
2023/10/02 14:15:13;;;;;;;17.58;11.57;;;;;;;;;;5034468;28;20538;-76
2023/10/02 14:17:39;;;;;;;22.20;13.45;;;;;;;;;;5038543;28;20026;-75
2023/10/02 14:20:06;;;;;;;22.10;13.25;;;;;;;;;;5033671;28;20079;-74
2023/10/02 14:22:37;;;;;;;20.42;13.13;;;;;;;;;;5034129;28;20472;-75
2023/10/02 14:25:06;;;;;;;29.63;16.63;;;;;;;;;;5033830;28;20026;-77
2023/10/02 14:27:32;;;;;;;26.70;16.05;;;;;;;;;;5033628;28;20362;-76
2023/10/02 14:29:58;;;;;;;23.75;14.25;;;;;;;;;;5034337;28;20167;-77
2023/10/02 14:32:24;;;;;;;21.58;13.68;;;;;;;;;;5037522;28;20021;-76
2023/10/02 14:34:54;;;;;;;20.80;13.65;;;;;;;;;;5041108;28;20044;-76
2023/10/02 14:37:20;;;;;;;24.77;15.10;;;;;;;;;;5059237;28;20522;-77
2023/10/02 14:39:46;;;;;;;23.88;14.20;;;;;;;;;;5057583;28;20035;-76
2023/10/02 14:42:13;;;;;;;21.65;14.02;;;;;;;;;;5058743;28;20025;-76
2023/10/02 14:44:39;;;;;;;22.70;13.35;;;;;;;;;;5059778;28;20029;-76
2023/10/02 14:47:07;;;;;;;22.23;14.35;;;;;;;;;;5039751;28;20036;-75
2023/10/02 14:49:33;;;;;;;23.13;13.50;;;;;;;;;;5050047;28;20067;-76
2023/10/02 14:52:00;;;;;;;26.70;14.55;;;;;;;;;;5058112;28;20382;-76
2023/10/02 14:54:28;;;;;;;23.10;14.02;;;;;;;;;;5057757;28;20029;-75
2023/10/02 14:56:54;;;;;;;21.40;12.88;;;;;;;;;;5043961;28;20040;-76
2023/10/02 14:59:20;;;;;;;20.88;12.85;;;;;;;;;;5036840;28;20388;-76
2023/10/02 15:01:46;;;;;;;21.85;13.50;;;;;;;;;;5036921;28;20423;-76
2023/10/02 15:04:13;;;;;;;21.60;13.60;;;;;;;;;;5035678;28;20026;-76
2023/10/02 15:06:40;;;;;;;25.75;14.90;;;;;;;;;;5036357;28;20013;-77
2023/10/02 15:09:09;;;;;;;24.35;14.95;;;;;;;;;;5036449;28;20022;-76
2023/10/02 15:11:39;;;;;;;28.42;16.20;;;;;;;;;;5036994;28;20022;-76
2023/10/02 15:14:08;;;;;;;25.33;14.65;;;;;;;;;;5037670;28;20032;-76
2023/10/02 15:16:37;;;;;;;25.23;14.35;;;;;;;;;;5044369;28;20055;-75
2023/10/02 15:19:03;;;;;;;26.10;14.73;;;;;;;;;;5065284;28;20021;-76
2023/10/02 15:21:29;;;;;;;26.98;15.57;;;;;;;;;;5067758;28;20036;-75
2023/10/02 15:23:58;;;;;;;28.02;16.38;;;;;;;;;;5072221;28;20013;-75
2023/10/02 15:26:24;;;;;;;27.90;16.13;;;;;;;;;;5072585;28;20288;-76
2023/10/02 15:28:50;;;;;;;31.02;16.70;;;;;;;;;;5050851;28;20421;-75
2023/10/02 15:31:18;;;;;;;28.33;17.10;;;;;;;;;;5035787;28;20072;-75
2023/10/02 15:33:44;;;;;;;26.73;15.40;;;;;;;;;;5041603;28;20025;-75
2023/10/02 15:36:15;;;;;;;27.63;14.93;;;;;;;;;;5045080;28;20026;-76
2023/10/02 15:38:45;;;;;;;25.58;14.10;;;;;;;;;;5044637;28;20029;-76
2023/10/02 15:41:25;;;;;;;23.30;13.07;;;;;;;;;;5037560;28;20060;-76
2023/10/02 15:43:51;;;;;;;25.90;13.65;;;;;;;;;;5038137;28;20026;-75
2023/10/02 15:46:17;;;;;;;23.15;13.98;;;;;;;;;;5038243;28;20025;-75
2023/10/02 15:48:43;;;;;;;27.52;15.13;;;;;;;;;;5036176;28;20025;-76
2023/10/02 15:51:14;;;;;;;23.73;14.15;;;;;;;;;;5062741;22;20159;-79
2023/10/02 15:53:45;;;;;;;23.02;14.18;;;;;;;;;;5042364;28;20028;-79
2023/10/02 15:56:23;;;;;;;21.77;12.68;;;;;;;;;;5022176;28;20025;-79
2023/10/02 15:58:49;;;;;;;19.27;11.70;;;;;;;;;;5029105;28;20326;-78
2023/10/02 16:01:17;;;;;;;19.50;11.27;;;;;;;;;;5003538;28;20022;-79
2023/10/02 16:03:46;;;;;;;20.88;11.73;;;;;;;;;;5003387;28;20133;-78
2023/10/02 16:06:13;;;;;;;19.95;12.13;;;;;;;;;;5003488;28;20050;-78
2023/10/02 16:08:39;;;;;;;19.55;11.35;;;;;;;;;;5020500;28;20149;-77
2023/10/02 16:11:05;;;;;;;18.58;10.98;;;;;;;;;;5001664;28;20049;-78
2023/10/02 16:13:31;;;;;;;17.88;10.80;;;;;;;;;;5002965;28;20026;-77
2023/10/02 16:15:57;;;;;;;17.55;10.90;;;;;;;;;;5002264;28;20030;-77
2023/10/02 16:18:24;;;;;;;16.17;10.10;;;;;;;;;;4999873;28;20026;-77